Terminal Aerodrome Forecast
Issued by NWS Charleston, WV

Current Version | Previous Version | Text Only | Print | Product List | Glossary Off
Versions: 1 2 3 4 5 6 7 8 9 10 11 12 13 14 15 16 17 18 19 20 21 22

000
FTUS41 KRLX 201732
TAFHTS
TAF
KHTS 201732Z 2018/2118 VRB03KT P6SM SCT050
     FM210000 00000KT P6SM SCT250
     FM211000 00000KT 4SM BR FEW001
     FM211300 VRB03KT P6SM SKC
     FM211600 VRB03KT P6SM FEW045=

USA.gov is the U.S. government's official web portal to all federal, state and local government web resources and services.